createdAt,value
2019-05-05T00:00:05.514Z,66.60
2019-05-05T00:02:38.897Z,66.50
2019-05-05T00:05:08.819Z,67.10
2019-05-05T00:07:37.803Z,67.10
2019-05-05T00:10:09.688Z,67.10
2019-05-05T00:12:40.093Z,67.20
2019-05-05T00:15:26.969Z,66.80
2019-05-05T00:17:55.921Z,67.60
2019-05-05T00:20:25.102Z,67.70
2019-05-05T00:22:54.615Z,67.50
2019-05-05T00:25:24.926Z,67.30
2019-05-05T00:27:54.572Z,67.20
2019-05-05T00:30:24.944Z,67.10
2019-05-05T00:32:54.890Z,67.60
2019-05-05T00:35:25.230Z,67.90
2019-05-05T00:37:54.482Z,67.60
2019-05-05T00:40:24.783Z,67.80
2019-05-05T00:42:55.739Z,67.70
2019-05-05T00:45:26.063Z,67.90
2019-05-05T00:48:15.277Z,68.90
2019-05-05T00:50:44.960Z,67.90
2019-05-05T00:53:14.595Z,67.80
2019-05-05T00:55:44.252Z,68.00
2019-05-05T00:58:14.319Z,68.10
2019-05-05T01:00:59.936Z,68.70
2019-05-05T01:03:28.820Z,68.60
2019-05-05T01:06:01.716Z,69.10
2019-05-05T01:08:30.596Z,69.00
2019-05-05T01:10:59.379Z,68.70
2019-05-05T01:13:28.196Z,67.70
2019-05-05T01:15:57.057Z,67.20
2019-05-05T01:18:25.966Z,67.30
2019-05-05T01:20:55.283Z,67.50
2019-05-05T01:23:24.500Z,68.00
2019-05-05T01:25:54.393Z,67.30
2019-05-05T01:28:24.922Z,68.10
2019-05-05T01:30:55.627Z,68.50
2019-05-05T01:33:28.774Z,69.20
2019-05-05T01:35:57.626Z,69.00
2019-05-05T01:38:30.898Z,68.30
2019-05-05T01:41:16.631Z,68.10
2019-05-05T01:43:45.470Z,67.70
2019-05-05T01:46:14.476Z,67.30
2019-05-05T01:48:44.558Z,67.70
2019-05-05T01:51:14.330Z,68.20
2019-05-05T01:53:44.279Z,68.30
2019-05-05T01:56:15.248Z,68.40
2019-05-05T01:58:44.257Z,67.60
2019-05-05T02:01:15.164Z,68.90
2019-05-05T02:03:44.270Z,68.50
2019-05-05T02:06:14.227Z,68.20
2019-05-05T02:08:45.280Z,68.50
2019-05-05T02:11:15.573Z,69.40
2019-05-05T02:13:45.089Z,69.80
2019-05-05T02:16:15.049Z,69.90
2019-05-05T02:18:45.044Z,70.20
2019-05-05T02:21:14.311Z,71.10
2019-05-05T02:23:45.162Z,71.90
2019-05-05T02:26:15.443Z,71.70
2019-05-05T02:28:45.927Z,72.40
2019-05-05T02:31:19.352Z,72.90
2019-05-05T02:33:48.518Z,72.70
2019-05-05T02:36:17.387Z,73.00
2019-05-05T02:38:46.536Z,73.50
2019-05-05T02:41:16.385Z,73.10
2019-05-05T02:43:45.922Z,73.00
2019-05-05T02:46:16.670Z,72.30
2019-05-05T02:48:48.522Z,72.30
2019-05-05T02:51:17.757Z,73.00
2019-05-05T02:53:49.695Z,72.80
2019-05-05T02:56:23.734Z,73.60
2019-05-05T02:58:55.587Z,74.00
2019-05-05T03:01:29.816Z,74.20
2019-05-05T03:03:58.989Z,74.10
2019-05-05T03:06:27.840Z,74.90
2019-05-05T03:08:57.960Z,75.50
2019-05-05T03:11:28.498Z,75.40
2019-05-05T03:13:59.184Z,75.50
2019-05-05T03:16:30.905Z,75.00
2019-05-05T03:18:59.719Z,74.60
2019-05-05T03:21:28.590Z,74.20
2019-05-05T03:23:57.502Z,74.40
2019-05-05T03:26:26.498Z,74.70
2019-05-05T03:28:57.166Z,75.10
2019-05-05T03:31:26.549Z,76.00
2019-05-05T03:33:56.122Z,76.00
2019-05-05T03:36:27.096Z,75.60
2019-05-05T03:38:56.327Z,75.20
2019-05-05T03:41:44.195Z,75.00
2019-05-05T03:44:20.903Z,74.70
2019-05-05T03:46:50.441Z,74.90
2019-05-05T03:49:19.487Z,76.00
2019-05-05T03:51:48.398Z,75.20
2019-05-05T03:54:17.447Z,75.00
2019-05-05T03:56:46.756Z,74.20
2019-05-05T03:59:15.619Z,74.10
2019-05-05T04:01:46.166Z,74.40
2019-05-05T04:04:25.852Z,74.40
2019-05-05T04:06:56.044Z,74.10
2019-05-05T04:09:25.340Z,73.00
2019-05-05T04:11:54.209Z,72.80
2019-05-05T04:14:24.995Z,73.10
2019-05-05T04:17:10.422Z,73.00
2019-05-05T04:19:49.943Z,73.20
2019-05-05T04:22:18.782Z,74.00
2019-05-05T04:24:47.554Z,74.70
2019-05-05T04:27:16.392Z,74.70
2019-05-05T04:29:45.215Z,74.70
2019-05-05T04:32:14.278Z,74.30
2019-05-05T04:34:43.864Z,74.50
2019-05-05T04:37:14.959Z,73.90
2019-05-05T04:39:45.433Z,74.20
2019-05-05T04:42:14.323Z,73.70
2019-05-05T04:44:44.959Z,74.70
2019-05-05T04:47:15.186Z,73.90
2019-05-05T04:49:45.603Z,73.40
2019-05-05T04:52:16.063Z,73.60
2019-05-05T04:54:46.475Z,73.80
2019-05-05T04:57:15.288Z,73.00
2019-05-05T04:59:44.478Z,72.30
2019-05-05T05:02:15.079Z,70.80
2019-05-05T05:04:48.316Z,69.90
2019-05-05T05:07:18.193Z,67.90
2019-05-05T05:09:46.974Z,66.70
2019-05-05T05:12:15.799Z,66.30
2019-05-05T05:14:44.576Z,67.40
2019-05-05T05:17:15.042Z,67.80
2019-05-05T05:19:43.814Z,68.40
2019-05-05T05:22:13.674Z,69.10
2019-05-05T05:24:44.568Z,68.50
2019-05-05T05:27:13.871Z,68.20
2019-05-05T05:29:43.779Z,67.00
2019-05-05T05:32:12.766Z,66.00
2019-05-05T05:34:43.560Z,65.20
2019-05-05T05:37:13.501Z,65.10
2019-05-05T05:40:00.581Z,66.20
2019-05-05T05:42:29.386Z,66.00
2019-05-05T05:45:16.096Z,66.00
2019-05-05T05:47:58.702Z,66.70
2019-05-05T05:50:29.173Z,66.90
2019-05-05T05:52:57.967Z,67.70
2019-05-05T05:55:26.759Z,67.40
2019-05-05T05:57:55.647Z,67.80
2019-05-05T06:00:24.441Z,68.80
2019-05-05T06:02:54.590Z,69.60
2019-05-05T06:05:23.900Z,71.00
2019-05-05T06:07:54.472Z,69.90
2019-05-05T06:10:27.048Z,70.10
2019-05-05T06:12:54.684Z,70.30
2019-05-05T06:15:24.424Z,68.90
2019-05-05T06:17:53.989Z,69.70
2019-05-05T06:20:23.862Z,68.00
2019-05-05T06:22:53.551Z,68.30
2019-05-05T06:25:26.258Z,69.40
2019-05-05T06:27:54.052Z,68.60
2019-05-05T06:30:24.437Z,68.40
2019-05-05T06:32:54.360Z,68.90
2019-05-05T06:35:24.444Z,67.60
2019-05-05T06:37:54.287Z,67.90
2019-05-05T06:40:28.143Z,67.30
2019-05-05T06:42:58.697Z,67.00
2019-05-05T06:45:29.075Z,66.80
2019-05-05T06:47:57.877Z,66.50
2019-05-05T06:50:26.757Z,66.10
2019-05-05T06:52:55.670Z,65.30
2019-05-05T06:55:24.563Z,65.30
2019-05-05T06:57:53.877Z,65.30
2019-05-05T07:00:24.156Z,65.60
2019-05-05T07:02:54.063Z,66.00
2019-05-05T07:05:23.524Z,64.40
2019-05-05T07:07:53.723Z,63.50
2019-05-05T07:10:24.463Z,63.30
2019-05-05T07:12:54.358Z,62.60
2019-05-05T07:15:23.748Z,63.10
2019-05-05T07:17:53.564Z,60.20
2019-05-05T07:20:24.133Z,57.50
2019-05-05T07:23:01.479Z,51.40
2019-05-05T07:25:24.232Z,46.90
2019-05-05T07:27:54.663Z,40.60
2019-05-05T07:30:24.277Z,39.20
2019-05-05T07:32:53.733Z,39.80
2019-05-05T07:35:29.833Z,41.80
2019-05-05T07:37:58.731Z,42.10
2019-05-05T07:40:27.543Z,44.20
2019-05-05T07:42:56.370Z,45.60
2019-05-05T07:45:25.873Z,47.00
2019-05-05T07:47:54.801Z,48.30
2019-05-05T07:50:29.565Z,49.10
2019-05-05T07:52:54.664Z,50.80
2019-05-05T07:55:23.851Z,51.50
2019-05-05T07:57:54.096Z,51.80
2019-05-05T08:00:24.065Z,51.90
2019-05-05T08:02:54.437Z,51.90
2019-05-05T08:05:24.600Z,51.50
2019-05-05T08:07:53.995Z,52.00
2019-05-05T08:10:24.162Z,50.70
2019-05-05T08:12:54.190Z,52.20
2019-05-05T08:15:24.611Z,51.90
2019-05-05T08:17:57.855Z,48.50
2019-05-05T08:20:28.380Z,44.10
2019-05-05T08:22:57.219Z,42.20
2019-05-05T08:25:45.217Z,43.80
2019-05-05T08:28:17.834Z,44.80
2019-05-05T08:30:57.230Z,45.30
2019-05-05T08:33:26.011Z,46.20
2019-05-05T08:35:54.888Z,45.00
2019-05-05T08:38:24.220Z,42.60
2019-05-05T08:40:54.303Z,42.80
2019-05-05T08:43:24.150Z,43.60
2019-05-05T08:45:55.295Z,42.60
2019-05-05T08:48:26.826Z,43.40
2019-05-05T08:50:55.681Z,43.00
2019-05-05T08:53:24.572Z,40.80
2019-05-05T08:55:54.995Z,41.80
2019-05-05T08:58:23.886Z,41.40
2019-05-05T09:00:53.669Z,45.60
2019-05-05T09:03:24.303Z,48.20
2019-05-05T09:05:54.265Z,48.50
2019-05-05T09:08:24.356Z,49.20
2019-05-05T09:10:55.236Z,52.90
2019-05-05T09:13:25.207Z,59.70
2019-05-05T09:15:54.469Z,65.00
2019-05-05T09:18:24.595Z,68.70
2019-05-05T09:20:53.804Z,73.20
2019-05-05T09:23:24.021Z,76.10
2019-05-05T09:25:54.829Z,76.50
2019-05-05T09:28:25.287Z,77.30
2019-05-05T09:30:54.117Z,77.90
2019-05-05T09:33:25.780Z,78.20
2019-05-05T09:35:55.057Z,78.30
2019-05-05T09:38:23.994Z,79.60
2019-05-05T09:40:54.451Z,79.10
2019-05-05T09:43:24.210Z,77.50
2019-05-05T09:45:54.470Z,75.00
2019-05-05T09:48:24.305Z,78.70
2019-05-05T09:50:54.071Z,78.50
2019-05-05T09:53:23.760Z,80.00
2019-05-05T09:55:54.756Z,76.10
2019-05-05T09:58:26.662Z,70.90
2019-05-05T10:00:55.909Z,66.70
2019-05-05T10:03:24.877Z,61.00
2019-05-05T10:05:54.155Z,54.50
2019-05-05T10:08:27.755Z,48.70
2019-05-05T10:10:56.680Z,45.20
2019-05-05T10:13:25.462Z,40.90
2019-05-05T10:15:57.291Z,34.90
2019-05-05T10:18:26.174Z,32.70
2019-05-05T10:20:55.020Z,29.30
2019-05-05T10:23:25.494Z,29.30
2019-05-05T10:25:54.448Z,28.80
2019-05-05T10:28:23.874Z,27.00
2019-05-05T10:30:53.858Z,25.80
2019-05-05T10:33:24.672Z,26.00
2019-05-05T10:35:54.153Z,24.70
2019-05-05T10:38:23.559Z,25.90
2019-05-05T10:40:53.703Z,24.90
2019-05-05T10:43:25.575Z,26.90
2019-05-05T10:45:54.741Z,26.80
2019-05-05T10:48:23.683Z,24.40
2019-05-05T10:50:53.723Z,23.00
2019-05-05T10:53:22.558Z,24.40
2019-05-05T10:55:51.443Z,28.50
2019-05-05T10:58:20.221Z,36.60
2019-05-05T11:00:54.490Z,43.50
2019-05-05T11:03:24.911Z,46.70
2019-05-05T11:05:53.928Z,47.30
2019-05-05T11:08:24.127Z,49.80
2019-05-05T11:10:53.055Z,51.10
2019-05-05T11:13:23.876Z,50.60
2019-05-05T11:15:54.508Z,51.20
2019-05-05T11:18:23.767Z,52.10
2019-05-05T11:20:54.876Z,53.40
2019-05-05T11:23:24.946Z,54.50
2019-05-05T11:25:54.517Z,55.50
2019-05-05T11:28:23.647Z,53.20
2019-05-05T11:30:53.732Z,54.00
2019-05-05T11:33:27.041Z,51.40
2019-05-05T11:36:01.743Z,51.50
2019-05-05T11:38:30.571Z,51.20
2019-05-05T11:40:59.399Z,46.80
2019-05-05T11:43:28.190Z,47.10
2019-05-05T11:45:57.025Z,45.80
2019-05-05T11:48:28.003Z,41.20
2019-05-05T11:50:56.926Z,38.90
2019-05-05T11:53:25.716Z,36.40
2019-05-05T11:55:55.070Z,32.70
2019-05-05T11:58:24.926Z,29.50
2019-05-05T12:00:54.675Z,27.60
2019-05-05T12:03:23.791Z,27.70
2019-05-05T12:05:52.592Z,28.10
2019-05-05T12:08:21.414Z,25.50
2019-05-05T12:10:59.531Z,23.90
2019-05-05T12:13:29.688Z,25.60
2019-05-05T12:16:04.615Z,27.90
2019-05-05T12:18:34.310Z,31.30
2019-05-05T12:21:05.212Z,35.10
2019-05-05T12:23:34.344Z,38.20
2019-05-05T12:26:20.266Z,39.60
2019-05-05T12:28:50.741Z,41.80
2019-05-05T12:31:21.209Z,42.30
2019-05-05T12:33:50.036Z,42.40
2019-05-05T12:36:20.335Z,43.60
2019-05-05T12:38:49.185Z,44.50
2019-05-05T12:41:21.020Z,44.40
2019-05-05T12:43:51.259Z,42.80
2019-05-05T12:46:36.885Z,41.50
2019-05-05T12:49:07.404Z,42.20
2019-05-05T12:51:43.521Z,39.20
2019-05-05T12:54:14.592Z,38.30
2019-05-05T12:56:50.397Z,40.50
2019-05-05T12:59:20.853Z,42.60
2019-05-05T13:01:49.814Z,42.80
2019-05-05T13:04:18.648Z,43.60
2019-05-05T13:06:47.426Z,46.10
2019-05-05T13:09:17.100Z,48.20
2019-05-05T13:11:46.000Z,47.10
2019-05-05T13:14:14.836Z,44.60
2019-05-05T13:16:52.518Z,41.50
2019-05-05T13:19:24.049Z,38.30
2019-05-05T13:22:03.652Z,38.80
2019-05-05T13:24:46.425Z,40.30
2019-05-05T13:27:19.612Z,39.20
2019-05-05T13:29:50.761Z,39.20
2019-05-05T13:32:19.606Z,41.00
2019-05-05T13:34:48.499Z,41.90
2019-05-05T13:37:17.291Z,42.60
2019-05-05T13:39:47.572Z,43.60
2019-05-05T13:42:16.357Z,44.00
2019-05-05T13:44:50.216Z,44.60
2019-05-05T13:47:19.207Z,45.00
2019-05-05T13:49:48.322Z,45.80
2019-05-05T13:52:17.152Z,46.70
2019-05-05T13:54:45.884Z,48.10
2019-05-05T13:57:14.717Z,48.10
2019-05-05T13:59:44.493Z,47.80
2019-05-05T14:02:17.836Z,49.20
2019-05-05T14:04:46.703Z,50.90
2019-05-05T14:07:15.534Z,52.10
2019-05-05T14:09:44.317Z,53.30
2019-05-05T14:12:14.659Z,53.20
2019-05-05T14:14:44.072Z,51.30
2019-05-05T14:17:14.745Z,50.80
2019-05-05T14:19:44.582Z,50.40
2019-05-05T14:22:13.482Z,48.20
2019-05-05T14:24:44.461Z,48.80
2019-05-05T14:27:14.504Z,48.80
2019-05-05T14:29:57.508Z,47.50
2019-05-05T14:32:27.914Z,47.10
2019-05-05T14:35:03.856Z,42.90
2019-05-05T14:37:34.124Z,42.60
2019-05-05T14:40:04.737Z,43.10
2019-05-05T14:42:34.193Z,40.40
2019-05-05T14:45:06.554Z,40.40
2019-05-05T14:47:35.451Z,40.40
2019-05-05T14:50:05.575Z,40.00
2019-05-05T14:52:34.369Z,43.30
2019-05-05T14:55:03.895Z,44.70
2019-05-05T14:57:33.593Z,46.10
2019-05-05T15:00:04.534Z,46.60
2019-05-05T15:02:34.817Z,46.20
2019-05-05T15:05:22.102Z,45.90
2019-05-05T15:07:53.662Z,45.60
2019-05-05T15:10:40.618Z,45.50
2019-05-05T15:13:10.367Z,45.00
2019-05-05T15:15:39.214Z,45.70
2019-05-05T15:18:08.069Z,45.00
2019-05-05T15:20:36.872Z,44.50
2019-05-05T15:23:05.712Z,43.30
2019-05-05T15:25:34.483Z,43.40
2019-05-05T15:28:05.205Z,43.80
2019-05-05T15:30:34.107Z,44.50
2019-05-05T15:33:04.513Z,44.70
2019-05-05T15:35:33.980Z,44.80
2019-05-05T15:38:04.491Z,44.20
2019-05-05T15:40:33.837Z,44.60
2019-05-05T15:43:03.802Z,43.90
2019-05-05T15:45:34.089Z,45.40
2019-05-05T15:48:04.617Z,45.70
2019-05-05T15:50:33.661Z,43.50
2019-05-05T15:53:03.835Z,43.70
2019-05-05T15:55:33.982Z,43.90
2019-05-05T15:58:03.622Z,44.40
2019-05-05T16:00:33.778Z,46.00
2019-05-05T16:03:04.259Z,45.80
2019-05-05T16:05:34.506Z,45.90
2019-05-05T16:08:04.509Z,44.90
2019-05-05T16:10:34.749Z,46.20
2019-05-05T16:13:04.467Z,46.30
2019-05-05T16:15:35.040Z,46.80
2019-05-05T16:18:14.764Z,46.30
2019-05-05T16:20:57.162Z,45.30
2019-05-05T16:23:27.630Z,45.80
2019-05-05T16:25:56.454Z,46.40
2019-05-05T16:28:25.409Z,46.40
2019-05-05T16:30:56.245Z,46.70
2019-05-05T16:33:24.784Z,47.20
2019-05-05T16:35:53.653Z,47.00
2019-05-05T16:38:24.025Z,44.20
2019-05-05T16:40:53.753Z,45.40
2019-05-05T16:43:24.687Z,45.70
2019-05-05T16:45:53.770Z,44.20
2019-05-05T16:48:25.215Z,42.70
2019-05-05T16:50:54.179Z,44.40
2019-05-05T16:53:38.605Z,45.90
2019-05-05T16:56:11.213Z,47.30
2019-05-05T16:58:40.100Z,49.10
2019-05-05T17:01:14.423Z,48.90
2019-05-05T17:03:45.654Z,48.20
2019-05-05T17:06:14.165Z,48.20
2019-05-05T17:08:44.453Z,46.40
2019-05-05T17:11:15.051Z,47.00
2019-05-05T17:13:51.705Z,48.90
2019-05-05T17:16:24.778Z,49.30
2019-05-05T17:19:00.749Z,49.20
2019-05-05T17:21:47.519Z,50.40
2019-05-05T17:24:16.414Z,50.30
2019-05-05T17:26:45.231Z,50.80
2019-05-05T17:29:14.609Z,50.20
2019-05-05T17:31:44.360Z,50.10
2019-05-05T17:34:13.707Z,50.00
2019-05-05T17:36:42.770Z,50.10
2019-05-05T17:39:11.592Z,48.80
2019-05-05T17:41:44.797Z,48.90
2019-05-05T17:44:15.449Z,48.80
2019-05-05T17:46:45.916Z,49.10
2019-05-05T17:49:22.918Z,49.30
2019-05-05T17:52:00.599Z,49.60
2019-05-05T17:54:33.905Z,49.20
2019-05-05T17:57:03.569Z,49.50
2019-05-05T17:59:33.791Z,50.20
2019-05-05T18:02:04.756Z,50.80
2019-05-05T18:04:33.765Z,51.10
2019-05-05T18:07:07.137Z,51.40
2019-05-05T18:09:53.983Z,51.30
2019-05-05T18:12:40.857Z,51.70
2019-05-05T18:15:30.695Z,51.90
2019-05-05T18:17:59.545Z,52.00
2019-05-05T18:20:29.955Z,51.10
2019-05-05T18:22:58.762Z,51.90
2019-05-05T18:25:27.593Z,52.00
2019-05-05T18:27:56.474Z,51.70
2019-05-05T18:30:25.338Z,51.20
2019-05-05T18:32:54.211Z,51.50
2019-05-05T18:35:24.260Z,53.30
2019-05-05T18:37:54.425Z,53.00
2019-05-05T18:40:24.138Z,53.70
2019-05-05T18:42:54.354Z,53.90
2019-05-05T18:45:23.768Z,54.40
2019-05-05T18:47:53.839Z,54.60
2019-05-05T18:50:24.369Z,54.80
2019-05-05T18:52:53.873Z,54.50
2019-05-05T18:55:22.846Z,55.40
2019-05-05T18:57:51.702Z,54.60
2019-05-05T19:00:24.732Z,54.50
2019-05-05T19:02:57.846Z,55.00
2019-05-05T19:05:37.588Z,56.30
2019-05-05T19:08:10.531Z,55.60
2019-05-05T19:10:39.371Z,55.80
2019-05-05T19:13:08.268Z,55.50
2019-05-05T19:15:39.330Z,55.00
2019-05-05T19:18:08.160Z,54.60
2019-05-05T19:20:55.315Z,55.10
2019-05-05T19:23:24.173Z,55.20
2019-05-05T19:25:55.845Z,54.80
2019-05-05T19:28:23.611Z,55.70
2019-05-05T19:30:54.804Z,56.30
2019-05-05T19:33:24.599Z,56.70
2019-05-05T19:35:53.915Z,57.40
2019-05-05T19:38:27.184Z,57.20
2019-05-05T19:40:56.442Z,57.60
2019-05-05T19:43:25.454Z,56.80
2019-05-05T19:45:55.230Z,56.90
2019-05-05T19:48:27.117Z,56.30
2019-05-05T19:50:57.611Z,57.50
2019-05-05T19:53:29.494Z,57.90
2019-05-05T19:55:58.448Z,57.90
2019-05-05T19:58:27.431Z,58.00
2019-05-05T20:00:57.867Z,58.30
2019-05-05T20:03:26.815Z,58.60
2019-05-05T20:05:55.702Z,59.10
2019-05-05T20:08:38.998Z,59.10
2019-05-05T20:10:55.037Z,58.80
2019-05-05T20:13:24.445Z,58.90
2019-05-05T20:16:04.506Z,59.00
2019-05-05T20:18:34.283Z,58.70
2019-05-05T20:21:06.894Z,59.60
2019-05-05T20:23:34.126Z,58.60
2019-05-05T20:26:03.979Z,58.50
2019-05-05T20:28:33.852Z,58.50
2019-05-05T20:31:05.584Z,58.80
2019-05-05T20:33:41.709Z,58.70
2019-05-05T20:36:27.153Z,59.00
2019-05-05T20:38:57.535Z,59.30
2019-05-05T20:41:26.312Z,59.40
2019-05-05T20:43:55.177Z,59.50
2019-05-05T20:46:24.257Z,59.80
2019-05-05T20:48:54.514Z,60.20
2019-05-05T20:51:24.266Z,59.90
2019-05-05T20:53:54.200Z,60.50
2019-05-05T20:56:23.344Z,61.10
2019-05-05T20:58:52.236Z,60.90
2019-05-05T21:01:21.070Z,61.00
2019-05-05T21:03:50.134Z,60.50
2019-05-05T21:06:19.007Z,60.70
2019-05-05T21:08:48.029Z,61.70
2019-05-05T21:11:16.823Z,61.30
2019-05-05T21:13:48.448Z,61.30
2019-05-05T21:16:18.313Z,61.30
2019-05-05T21:18:47.128Z,61.30
2019-05-05T21:21:17.526Z,61.30
2019-05-05T21:23:47.942Z,62.10
2019-05-05T21:26:18.409Z,61.30
2019-05-05T21:28:47.181Z,61.60
2019-05-05T21:31:16.027Z,61.70
2019-05-05T21:33:45.297Z,61.20
2019-05-05T21:36:14.724Z,61.30
2019-05-05T21:38:44.028Z,61.50
2019-05-05T21:41:14.530Z,62.10
2019-05-05T21:43:44.996Z,61.70
2019-05-05T21:46:13.817Z,61.80
2019-05-05T21:48:44.766Z,62.30
2019-05-05T21:51:14.794Z,61.90
2019-05-05T21:53:47.379Z,61.70
2019-05-05T21:56:24.816Z,61.60
2019-05-05T21:58:54.590Z,62.40
2019-05-05T22:01:27.022Z,62.50
2019-05-05T22:03:55.713Z,61.90
2019-05-05T22:06:24.626Z,62.00
2019-05-05T22:08:56.374Z,62.40
2019-05-05T22:11:25.189Z,61.90
2019-05-05T22:13:54.249Z,62.10
2019-05-05T22:16:23.295Z,62.90
2019-05-05T22:18:54.017Z,62.70
2019-05-05T22:21:30.818Z,62.40
2019-05-05T22:24:16.114Z,62.00
2019-05-05T22:26:45.474Z,62.20
2019-05-05T22:29:16.990Z,62.50
2019-05-05T22:31:44.824Z,62.40
2019-05-05T22:34:14.587Z,62.40
2019-05-05T22:36:44.811Z,63.00
2019-05-05T22:39:16.438Z,63.40
2019-05-05T22:41:44.770Z,63.80
2019-05-05T22:44:14.054Z,63.30
2019-05-05T22:46:43.115Z,62.80
2019-05-05T22:49:12.048Z,63.30
2019-05-05T22:51:40.915Z,63.10
2019-05-05T22:54:09.758Z,63.70
2019-05-05T22:56:38.527Z,64.50
2019-05-05T22:59:07.407Z,64.60
2019-05-05T23:01:36.287Z,64.60
2019-05-05T23:04:23.992Z,64.40
2019-05-05T23:06:54.598Z,63.90
2019-05-05T23:09:23.350Z,64.10
2019-05-05T23:11:52.169Z,63.80
2019-05-05T23:14:30.367Z,64.20
2019-05-05T23:17:14.793Z,64.20
2019-05-05T23:19:51.156Z,64.60
2019-05-05T23:22:23.942Z,64.70
2019-05-05T23:25:05.791Z,65.10
2019-05-05T23:27:50.648Z,65.40
2019-05-05T23:30:23.766Z,65.30
2019-05-05T23:32:54.627Z,65.20
2019-05-05T23:35:23.934Z,65.30
2019-05-05T23:37:55.070Z,65.10
2019-05-05T23:40:27.966Z,65.10
2019-05-05T23:42:56.843Z,65.50
2019-05-05T23:45:25.637Z,65.80
2019-05-05T23:47:54.857Z,66.00
2019-05-05T23:50:24.482Z,65.90
2019-05-05T23:52:54.406Z,65.90
2019-05-05T23:55:24.193Z,65.60
2019-05-05T23:57:54.755Z,66.00
